createdAt,value
2018-06-28T00:00:48.484Z,941.32
2018-06-28T00:01:48.488Z,941.31
2018-06-28T00:02:48.482Z,941.33
2018-06-28T00:03:48.483Z,941.37
2018-06-28T00:04:48.484Z,941.38
2018-06-28T00:05:48.477Z,941.43
2018-06-28T00:06:48.475Z,941.42
2018-06-28T00:07:48.474Z,941.40
2018-06-28T00:08:48.516Z,941.36
2018-06-28T00:09:48.471Z,941.42
2018-06-28T00:10:48.469Z,941.34
2018-06-28T00:11:48.469Z,941.32
2018-06-28T00:12:48.467Z,941.30
2018-06-28T00:13:48.465Z,941.32
2018-06-28T00:14:48.464Z,941.30
2018-06-28T00:15:48.463Z,941.34
2018-06-28T00:16:48.460Z,941.32
2018-06-28T00:17:48.459Z,941.33
2018-06-28T00:18:48.458Z,941.33
2018-06-28T00:19:48.457Z,941.30
2018-06-28T00:20:48.454Z,941.28
2018-06-28T00:21:48.454Z,941.26
2018-06-28T00:22:48.452Z,941.28
2018-06-28T00:23:48.455Z,941.26
2018-06-28T00:24:48.451Z,941.27
2018-06-28T00:25:48.448Z,941.24
2018-06-28T00:26:48.446Z,941.24
2018-06-28T00:27:48.444Z,941.24
2018-06-28T00:28:48.443Z,941.21
2018-06-28T00:29:48.441Z,941.23
2018-06-28T00:30:48.439Z,941.23
2018-06-28T00:31:48.438Z,941.21
2018-06-28T00:32:48.437Z,941.21
2018-06-28T00:33:48.434Z,941.20
2018-06-28T00:34:48.433Z,941.24
2018-06-28T00:35:48.432Z,941.21
2018-06-28T00:36:48.431Z,941.21
2018-06-28T00:37:48.428Z,941.21
2018-06-28T00:38:48.427Z,941.24
2018-06-28T00:39:48.427Z,941.20
2018-06-28T00:40:48.424Z,941.21
2018-06-28T00:41:48.423Z,941.21
2018-06-28T00:42:48.421Z,941.17
2018-06-28T00:43:48.468Z,941.17
2018-06-28T00:44:48.418Z,941.13
2018-06-28T00:45:48.416Z,941.11
2018-06-28T00:46:48.415Z,941.12
2018-06-28T00:47:48.413Z,941.13
2018-06-28T00:48:48.412Z,941.13
2018-06-28T00:49:48.409Z,941.13
2018-06-28T00:50:48.408Z,941.15
2018-06-28T00:51:48.406Z,941.16
2018-06-28T00:52:48.404Z,941.17
2018-06-28T00:53:48.404Z,941.14
2018-06-28T00:54:48.403Z,941.15
2018-06-28T00:55:48.400Z,941.17
2018-06-28T00:56:48.398Z,941.12
2018-06-28T00:57:48.397Z,941.10
2018-06-28T00:58:48.396Z,941.05
2018-06-28T00:59:48.395Z,941.04
2018-06-28T01:00:48.393Z,941.04
2018-06-28T01:01:48.392Z,941.03
2018-06-28T01:02:48.389Z,940.98
2018-06-28T01:03:48.388Z,940.96
2018-06-28T01:04:48.385Z,940.93
2018-06-28T01:05:48.386Z,940.93
2018-06-28T01:06:48.384Z,940.95
2018-06-28T01:07:48.381Z,940.92
2018-06-28T01:08:48.379Z,940.92
2018-06-28T01:09:48.379Z,940.88
2018-06-28T01:10:48.377Z,940.89
2018-06-28T01:11:48.375Z,940.88
2018-06-28T01:12:48.373Z,940.87
2018-06-28T01:13:48.371Z,940.89
2018-06-28T01:14:48.370Z,940.93
2018-06-28T01:15:48.368Z,940.88
2018-06-28T01:16:48.372Z,940.91
2018-06-28T01:17:48.371Z,940.91
2018-06-28T01:18:48.365Z,940.92
2018-06-28T01:19:48.361Z,940.89
2018-06-28T01:20:48.400Z,940.84
2018-06-28T01:21:48.358Z,940.91
2018-06-28T01:22:48.356Z,940.90
2018-06-28T01:23:48.355Z,940.91
2018-06-28T01:24:48.355Z,940.91
2018-06-28T01:25:48.353Z,940.91
2018-06-28T01:26:48.350Z,940.89
2018-06-28T01:27:48.348Z,940.88
2018-06-28T01:28:48.346Z,940.87
2018-06-28T01:29:48.345Z,940.85
2018-06-28T01:30:48.343Z,940.82
2018-06-28T01:31:48.340Z,940.83
2018-06-28T01:32:48.340Z,940.83
2018-06-28T01:33:48.337Z,940.81
2018-06-28T01:34:48.335Z,940.81
2018-06-28T01:35:48.335Z,940.79
2018-06-28T01:36:48.332Z,940.76
2018-06-28T01:37:48.330Z,940.73
2018-06-28T01:38:48.328Z,940.70
2018-06-28T01:39:48.334Z,940.71
2018-06-28T01:40:48.327Z,940.65
2018-06-28T01:41:48.324Z,940.63
2018-06-28T01:42:48.321Z,940.64
2018-06-28T01:43:48.319Z,940.59
2018-06-28T01:44:48.323Z,940.60
2018-06-28T01:45:48.317Z,940.59
2018-06-28T01:46:48.364Z,940.58
2018-06-28T01:47:48.317Z,940.58
2018-06-28T01:48:48.313Z,940.55
2018-06-28T01:49:48.310Z,940.56
2018-06-28T01:50:48.306Z,940.58
2018-06-28T01:51:48.306Z,940.58
2018-06-28T01:52:48.303Z,940.57
2018-06-28T01:53:48.303Z,940.54
2018-06-28T01:54:48.300Z,940.52
2018-06-28T01:55:48.299Z,940.55
2018-06-28T01:56:48.297Z,940.53
2018-06-28T01:57:48.295Z,940.52
2018-06-28T01:58:48.292Z,940.54
2018-06-28T01:59:48.291Z,940.53
2018-06-28T02:00:48.289Z,940.55
2018-06-28T02:01:48.287Z,940.55
2018-06-28T02:02:48.285Z,940.57
2018-06-28T02:03:48.284Z,940.57
2018-06-28T02:04:48.282Z,940.53
2018-06-28T02:05:48.281Z,940.54
2018-06-28T02:06:48.305Z,940.50
2018-06-28T02:07:48.277Z,940.52
2018-06-28T02:08:48.275Z,940.52
2018-06-28T02:09:48.272Z,940.53
2018-06-28T02:10:48.269Z,940.50
2018-06-28T02:11:48.268Z,940.49
2018-06-28T02:12:48.267Z,940.49
2018-06-28T02:13:48.265Z,940.47
2018-06-28T02:14:48.263Z,940.46
2018-06-28T02:15:48.263Z,940.46
2018-06-28T02:16:48.260Z,940.46
2018-06-28T02:17:48.258Z,940.43
2018-06-28T02:18:48.255Z,940.44
2018-06-28T02:19:48.254Z,940.43
2018-06-28T02:20:48.252Z,940.41
2018-06-28T02:21:48.249Z,940.40
2018-06-28T02:22:48.248Z,940.41
2018-06-28T02:23:48.247Z,940.39
2018-06-28T02:24:48.244Z,940.42
2018-06-28T02:25:48.246Z,940.33
2018-06-28T02:26:48.240Z,940.38
2018-06-28T02:27:48.239Z,940.36
2018-06-28T02:28:48.240Z,940.32
2018-06-28T02:29:48.240Z,940.34
2018-06-28T02:30:48.233Z,940.33
2018-06-28T02:31:48.232Z,940.30
2018-06-28T02:32:48.230Z,940.26
2018-06-28T02:33:48.227Z,940.31
2018-06-28T02:34:48.225Z,940.29
2018-06-28T02:35:48.224Z,940.27
2018-06-28T02:36:48.228Z,940.27
2018-06-28T02:37:48.220Z,940.25
2018-06-28T02:38:48.219Z,940.27
2018-06-28T02:39:48.217Z,940.25
2018-06-28T02:40:48.215Z,940.26
2018-06-28T02:41:48.214Z,940.26
2018-06-28T02:42:48.210Z,940.23
2018-06-28T02:43:48.208Z,940.30
2018-06-28T02:44:48.207Z,940.25
2018-06-28T02:45:48.210Z,940.24
2018-06-28T02:46:48.204Z,940.23
2018-06-28T02:47:48.202Z,940.23
2018-06-28T02:48:48.203Z,940.26
2018-06-28T02:49:48.198Z,940.29
2018-06-28T02:50:48.196Z,940.24
2018-06-28T02:51:48.195Z,940.23
2018-06-28T02:52:48.193Z,940.25
2018-06-28T02:53:48.191Z,940.24
2018-06-28T02:54:48.188Z,940.21
2018-06-28T02:55:48.188Z,940.26
2018-06-28T02:56:48.185Z,940.24
2018-06-28T02:57:48.188Z,940.25
2018-06-28T02:58:48.181Z,940.28
2018-06-28T02:59:48.181Z,940.30
2018-06-28T03:00:48.181Z,940.27
2018-06-28T03:01:48.177Z,940.24
2018-06-28T03:02:48.175Z,940.27
2018-06-28T03:03:48.172Z,940.28
2018-06-28T03:04:48.172Z,940.30
2018-06-28T03:05:48.172Z,940.27
2018-06-28T03:06:48.173Z,940.27
2018-06-28T03:07:48.167Z,940.29
2018-06-28T03:08:48.163Z,940.27
2018-06-28T03:09:48.162Z,940.25
2018-06-28T03:10:48.160Z,940.27
2018-06-28T03:11:48.157Z,940.24
2018-06-28T03:12:48.157Z,940.22
2018-06-28T03:13:48.155Z,940.25
2018-06-28T03:14:48.151Z,940.24
2018-06-28T03:15:48.149Z,940.25
2018-06-28T03:16:48.148Z,940.27
2018-06-28T03:17:48.148Z,940.27
2018-06-28T03:18:48.145Z,940.25
2018-06-28T03:19:48.144Z,940.24
2018-06-28T03:20:48.140Z,940.23
2018-06-28T03:21:48.138Z,940.24
2018-06-28T03:22:48.138Z,940.22
2018-06-28T03:23:48.135Z,940.28
2018-06-28T03:24:48.134Z,940.26
2018-06-28T03:25:48.131Z,940.30
2018-06-28T03:26:48.129Z,940.27
2018-06-28T03:27:48.177Z,940.28
2018-06-28T03:28:48.126Z,940.29
2018-06-28T03:29:48.123Z,940.29
2018-06-28T03:30:48.205Z,940.27
2018-06-28T03:31:48.121Z,940.32
2018-06-28T03:32:48.118Z,940.30
2018-06-28T03:33:48.116Z,940.27
2018-06-28T03:34:48.113Z,940.27
2018-06-28T03:35:48.111Z,940.27
2018-06-28T03:36:48.112Z,940.31
2018-06-28T03:37:48.178Z,940.29
2018-06-28T03:38:48.105Z,940.33
2018-06-28T03:39:48.105Z,940.31
2018-06-28T03:40:48.103Z,940.32
2018-06-28T03:41:48.153Z,940.30
2018-06-28T03:42:48.100Z,940.33
2018-06-28T03:43:48.097Z,940.36
2018-06-28T03:44:48.095Z,940.39
2018-06-28T03:45:48.096Z,940.38
2018-06-28T03:46:48.091Z,940.39
2018-06-28T03:47:48.090Z,940.42
2018-06-28T03:48:48.089Z,940.40
2018-06-28T03:49:48.090Z,940.43
2018-06-28T03:50:48.084Z,940.43
2018-06-28T03:51:48.086Z,940.42
2018-06-28T03:52:48.081Z,940.40
2018-06-28T03:53:48.079Z,940.35
2018-06-28T03:54:48.078Z,940.35
2018-06-28T03:55:48.074Z,940.37
2018-06-28T03:56:48.072Z,940.36
2018-06-28T03:57:48.071Z,940.36
2018-06-28T03:58:48.070Z,940.42
2018-06-28T03:59:48.068Z,940.41
2018-06-28T04:00:48.065Z,940.40
2018-06-28T04:01:48.064Z,940.41
2018-06-28T04:02:48.062Z,940.44
2018-06-28T04:03:48.059Z,940.41
2018-06-28T04:04:48.059Z,940.44
2018-06-28T04:05:48.056Z,940.42
2018-06-28T04:06:48.053Z,940.38
2018-06-28T04:07:48.056Z,940.42
2018-06-28T04:08:48.050Z,940.41
2018-06-28T04:09:48.050Z,940.38
2018-06-28T04:10:48.050Z,940.37
2018-06-28T04:11:48.044Z,940.42
2018-06-28T04:12:48.043Z,940.41
2018-06-28T04:13:48.043Z,940.42
2018-06-28T04:14:48.040Z,940.46
2018-06-28T04:15:48.038Z,940.43
2018-06-28T04:16:48.044Z,940.45
2018-06-28T04:17:48.034Z,940.40
2018-06-28T04:18:48.032Z,940.42
2018-06-28T04:19:48.031Z,940.42
2018-06-28T04:20:48.028Z,940.40
2018-06-28T04:21:48.029Z,940.40
2018-06-28T04:22:48.024Z,940.43
2018-06-28T04:23:48.024Z,940.42
2018-06-28T04:24:48.021Z,940.44
2018-06-28T04:25:48.021Z,940.44
2018-06-28T04:26:48.018Z,940.43
2018-06-28T04:27:48.022Z,940.40
2018-06-28T04:28:48.015Z,940.39
2018-06-28T04:29:48.013Z,940.41
2018-06-28T04:30:48.011Z,940.44
2018-06-28T04:31:48.009Z,940.44
2018-06-28T04:32:48.007Z,940.41
2018-06-28T04:33:48.006Z,940.44
2018-06-28T04:34:48.004Z,940.44
2018-06-28T04:35:48.002Z,940.42
2018-06-28T04:36:48.000Z,940.48
2018-06-28T04:37:47.998Z,940.46
2018-06-28T04:38:47.996Z,940.46
2018-06-28T04:39:47.994Z,940.44
2018-06-28T04:40:47.993Z,940.46
2018-06-28T04:41:47.992Z,940.45
2018-06-28T04:42:47.989Z,940.44
2018-06-28T04:43:47.987Z,940.43
2018-06-28T04:44:47.986Z,940.43
2018-06-28T04:45:47.983Z,940.44
2018-06-28T04:46:47.983Z,940.44
2018-06-28T04:47:47.979Z,940.42
2018-06-28T04:48:47.981Z,940.43
2018-06-28T04:49:48.007Z,940.41
2018-06-28T04:50:47.982Z,940.41
2018-06-28T04:51:47.972Z,940.41
2018-06-28T04:52:47.972Z,940.38
2018-06-28T04:53:47.970Z,940.40
2018-06-28T04:54:47.966Z,940.39
2018-06-28T04:55:47.965Z,940.36
2018-06-28T04:56:47.965Z,940.33
2018-06-28T04:57:47.963Z,940.37
2018-06-28T04:58:47.962Z,940.37
2018-06-28T04:59:47.960Z,940.37
2018-06-28T05:00:47.958Z,940.40
2018-06-28T05:01:47.956Z,940.34
2018-06-28T05:02:47.953Z,940.36
2018-06-28T05:03:47.952Z,940.37
2018-06-28T05:04:47.950Z,940.35
2018-06-28T05:05:47.949Z,940.34
2018-06-28T05:06:47.950Z,940.35
2018-06-28T05:07:47.945Z,940.37
2018-06-28T05:08:47.943Z,940.32
2018-06-28T05:09:47.949Z,940.36
2018-06-28T05:10:47.939Z,940.39
2018-06-28T05:11:47.939Z,940.34
2018-06-28T05:12:47.936Z,940.39
2018-06-28T05:13:47.935Z,940.34
2018-06-28T05:14:47.932Z,940.31
2018-06-28T05:15:47.932Z,940.33
2018-06-28T05:16:47.929Z,940.31
2018-06-28T05:17:47.928Z,940.34
2018-06-28T05:18:47.926Z,940.30
2018-06-28T05:19:47.925Z,940.36
2018-06-28T05:20:47.924Z,940.32
2018-06-28T05:21:47.922Z,940.35
2018-06-28T05:22:47.920Z,940.31
2018-06-28T05:23:47.917Z,940.33
2018-06-28T05:24:47.917Z,940.32
2018-06-28T05:25:47.915Z,940.27
2018-06-28T05:26:47.913Z,940.29
2018-06-28T05:27:47.912Z,940.31
2018-06-28T05:28:47.912Z,940.27
2018-06-28T05:29:47.910Z,940.29
2018-06-28T05:30:47.908Z,940.31
2018-06-28T05:31:47.906Z,940.29
2018-06-28T05:32:47.905Z,940.33
2018-06-28T05:33:47.906Z,940.33
2018-06-28T05:34:47.919Z,940.33
2018-06-28T05:35:47.900Z,940.35
2018-06-28T05:36:47.898Z,940.33
2018-06-28T05:37:47.897Z,940.33
2018-06-28T05:38:47.895Z,940.36
2018-06-28T05:39:47.893Z,940.38
2018-06-28T05:40:47.892Z,940.36
2018-06-28T05:41:47.890Z,940.34
2018-06-28T05:42:47.987Z,940.30
2018-06-28T05:43:47.886Z,940.34
2018-06-28T05:44:47.889Z,940.33
2018-06-28T05:45:47.886Z,940.34
2018-06-28T05:46:47.889Z,940.34
2018-06-28T05:47:47.880Z,940.33
2018-06-28T05:48:47.884Z,940.34
2018-06-28T05:49:47.882Z,940.32
2018-06-28T05:50:47.877Z,940.31
2018-06-28T05:51:47.874Z,940.33
2018-06-28T05:52:47.875Z,940.33
2018-06-28T05:53:47.875Z,940.31
2018-06-28T05:54:47.870Z,940.34
2018-06-28T05:55:47.874Z,940.33
2018-06-28T05:56:48.130Z,940.33
2018-06-28T05:57:48.074Z,940.29
2018-06-28T05:58:48.340Z,940.30
2018-06-28T05:59:48.177Z,940.32
2018-06-28T06:00:47.862Z,940.32
2018-06-28T06:01:47.860Z,940.32
2018-06-28T06:02:47.858Z,940.36
2018-06-28T06:03:47.857Z,940.36
2018-06-28T06:04:47.855Z,940.38
2018-06-28T06:05:47.854Z,940.34
2018-06-28T06:06:47.927Z,940.38
2018-06-28T06:07:47.851Z,940.42
2018-06-28T06:08:47.850Z,940.41
2018-06-28T06:09:47.852Z,940.41
2018-06-28T06:10:47.846Z,940.44
2018-06-28T06:11:47.845Z,940.40
2018-06-28T06:12:47.842Z,940.39
2018-06-28T06:13:47.858Z,940.34
2018-06-28T06:14:47.964Z,940.38
2018-06-28T06:15:47.837Z,940.36
2018-06-28T06:16:47.837Z,940.35
2018-06-28T06:17:47.836Z,940.33
2018-06-28T06:18:47.835Z,940.33
2018-06-28T06:19:47.833Z,940.34
2018-06-28T06:20:47.830Z,940.32
2018-06-28T06:21:47.828Z,940.37
2018-06-28T06:22:47.827Z,940.33
2018-06-28T06:23:47.826Z,940.31
2018-06-28T06:24:47.824Z,940.30
2018-06-28T06:25:47.822Z,940.27
2018-06-28T06:26:47.820Z,940.31
2018-06-28T06:27:47.823Z,940.28
2018-06-28T06:28:47.819Z,940.32
2018-06-28T06:29:47.816Z,940.31
2018-06-28T06:30:47.816Z,940.34
2018-06-28T06:31:47.812Z,940.37
2018-06-28T06:32:47.811Z,940.36
2018-06-28T06:33:47.810Z,940.34
2018-06-28T06:34:47.807Z,940.35
2018-06-28T06:35:47.806Z,940.28
2018-06-28T06:36:47.805Z,940.33
2018-06-28T06:37:47.805Z,940.33
2018-06-28T06:38:47.802Z,940.32
2018-06-28T06:39:47.800Z,940.31
2018-06-28T06:40:47.934Z,940.32
2018-06-28T06:41:47.798Z,940.32
2018-06-28T06:42:47.796Z,940.32
2018-06-28T06:43:47.794Z,940.34
2018-06-28T06:44:47.798Z,940.33
2018-06-28T06:45:47.791Z,940.34
2018-06-28T06:46:47.788Z,940.38
2018-06-28T06:47:47.788Z,940.37
2018-06-28T06:48:47.801Z,940.33
2018-06-28T06:49:47.786Z,940.31
2018-06-28T06:50:47.784Z,940.29
2018-06-28T06:51:47.781Z,940.30
2018-06-28T06:52:47.781Z,940.31
2018-06-28T06:53:47.780Z,940.31
2018-06-28T06:54:47.778Z,940.34
2018-06-28T06:55:47.779Z,940.34
2018-06-28T06:56:47.775Z,940.34
2018-06-28T06:57:47.777Z,940.35
2018-06-28T06:58:47.771Z,940.34
2018-06-28T06:59:47.771Z,940.34
2018-06-28T07:00:47.769Z,940.35
2018-06-28T07:01:47.768Z,940.35
2018-06-28T07:02:47.766Z,940.34
2018-06-28T07:03:47.767Z,940.38
2018-06-28T07:04:47.775Z,940.38
2018-06-28T07:05:47.763Z,940.37
2018-06-28T07:06:47.762Z,940.38
2018-06-28T07:07:47.759Z,940.38
2018-06-28T07:08:47.758Z,940.37
2018-06-28T07:09:47.757Z,940.36
2018-06-28T07:10:47.756Z,940.38
2018-06-28T07:11:47.753Z,940.39
2018-06-28T07:12:47.763Z,940.42
2018-06-28T07:13:47.752Z,940.41
2018-06-28T07:14:47.750Z,940.39
2018-06-28T07:15:47.748Z,940.40
2018-06-28T07:16:47.751Z,940.36
2018-06-28T07:17:47.745Z,940.37
2018-06-28T07:18:47.746Z,940.40
2018-06-28T07:19:47.742Z,940.42
2018-06-28T07:20:47.747Z,940.40
2018-06-28T07:21:47.740Z,940.39
2018-06-28T07:22:47.820Z,940.35
2018-06-28T07:23:47.738Z,940.36
2018-06-28T07:24:47.754Z,940.38
2018-06-28T07:25:47.738Z,940.36
2018-06-28T07:26:47.817Z,940.41
2018-06-28T07:27:47.730Z,940.38
2018-06-28T07:28:47.730Z,940.38
2018-06-28T07:29:47.731Z,940.37
2018-06-28T07:30:47.727Z,940.33
2018-06-28T07:31:47.726Z,940.31
2018-06-28T07:32:47.724Z,940.32
2018-06-28T07:33:47.813Z,940.32
2018-06-28T07:34:47.722Z,940.29
2018-06-28T07:35:47.723Z,940.30
2018-06-28T07:36:47.719Z,940.29
2018-06-28T07:37:47.719Z,940.32
2018-06-28T07:38:47.716Z,940.33
2018-06-28T07:39:47.716Z,940.30
2018-06-28T07:40:47.715Z,940.33
2018-06-28T07:41:47.713Z,940.29
2018-06-28T07:42:47.711Z,940.28
2018-06-28T07:43:47.710Z,940.29
2018-06-28T07:44:47.711Z,940.25
2018-06-28T07:45:47.709Z,940.21
2018-06-28T07:46:47.725Z,940.22
2018-06-28T07:47:47.708Z,940.22
2018-06-28T07:48:47.705Z,940.19
2018-06-28T07:49:47.702Z,940.21
2018-06-28T07:50:47.702Z,940.21
2018-06-28T07:51:47.701Z,940.20
2018-06-28T07:52:47.699Z,940.23
2018-06-28T07:53:48.538Z,940.21
2018-06-28T07:54:47.809Z,940.16
2018-06-28T07:55:47.694Z,940.21
2018-06-28T07:56:47.694Z,940.13
2018-06-28T07:57:47.861Z,940.16
2018-06-28T07:58:48.297Z,940.17
2018-06-28T07:59:47.692Z,940.15
2018-06-28T08:00:47.688Z,940.13
2018-06-28T08:01:47.687Z,940.13
2018-06-28T08:02:47.685Z,940.13
2018-06-28T08:03:47.684Z,940.12
2018-06-28T08:04:47.683Z,940.12
2018-06-28T08:05:47.686Z,940.06
2018-06-28T08:06:47.679Z,940.06
2018-06-28T08:07:47.677Z,940.05
2018-06-28T08:08:47.679Z,940.03
2018-06-28T08:09:47.725Z,940.04
2018-06-28T08:10:47.673Z,940.01
2018-06-28T08:11:47.671Z,940.00
2018-06-28T08:12:47.671Z,940.00
2018-06-28T08:13:47.670Z,940.02
2018-06-28T08:14:47.667Z,940.05
2018-06-28T08:15:47.666Z,940.08
2018-06-28T08:16:47.664Z,940.05
2018-06-28T08:17:47.664Z,940.03
2018-06-28T08:18:47.661Z,940.04
2018-06-28T08:19:47.659Z,940.03
2018-06-28T08:20:47.662Z,940.05
2018-06-28T08:21:47.657Z,940.09
2018-06-28T08:22:47.654Z,940.17
2018-06-28T08:23:47.674Z,940.21
2018-06-28T08:24:47.653Z,940.23
2018-06-28T08:25:47.652Z,940.19
2018-06-28T08:26:47.649Z,940.20
2018-06-28T08:27:47.649Z,940.16
2018-06-28T08:28:47.648Z,940.14
2018-06-28T08:29:47.645Z,940.14
2018-06-28T08:30:47.645Z,940.17
2018-06-28T08:31:47.642Z,940.18
2018-06-28T08:32:47.644Z,940.23
2018-06-28T08:33:47.900Z,940.18
2018-06-28T08:34:47.637Z,940.18
2018-06-28T08:35:47.681Z,940.15
2018-06-28T08:36:47.638Z,940.19
2018-06-28T08:37:47.632Z,940.21
2018-06-28T08:38:47.631Z,940.24
2018-06-28T08:39:47.631Z,940.20
2018-06-28T08:40:47.629Z,940.21
2018-06-28T08:41:47.627Z,940.20
2018-06-28T08:42:47.625Z,940.26
2018-06-28T08:43:47.624Z,940.23
2018-06-28T08:44:47.623Z,940.23
2018-06-28T08:45:47.624Z,940.25
2018-06-28T08:46:47.619Z,940.25
2018-06-28T08:47:47.618Z,940.26
2018-06-28T08:48:47.625Z,940.28
2018-06-28T08:49:47.616Z,940.26
2018-06-28T08:50:47.613Z,940.28
2018-06-28T08:51:47.611Z,940.31
2018-06-28T08:52:47.609Z,940.30
2018-06-28T08:53:47.607Z,940.32
2018-06-28T08:54:47.606Z,940.34
2018-06-28T08:55:47.604Z,940.36
2018-06-28T08:56:47.603Z,940.39
2018-06-28T08:57:47.676Z,940.44
2018-06-28T08:58:47.600Z,940.44
2018-06-28T08:59:47.597Z,940.43
2018-06-28T09:00:47.597Z,940.41
2018-06-28T09:01:47.594Z,940.40
2018-06-28T09:02:47.592Z,940.46
2018-06-28T09:03:47.592Z,940.48
2018-06-28T09:04:47.628Z,940.52
2018-06-28T09:05:47.631Z,940.53
2018-06-28T09:06:47.587Z,940.53
2018-06-28T09:07:47.585Z,940.52
2018-06-28T09:08:47.583Z,940.53
2018-06-28T09:09:47.583Z,940.54
2018-06-28T09:10:47.580Z,940.52
2018-06-28T09:11:47.579Z,940.53
2018-06-28T09:12:47.577Z,940.53
2018-06-28T09:13:47.576Z,940.52
2018-06-28T09:14:47.573Z,940.55
2018-06-28T09:15:47.579Z,940.53
2018-06-28T09:16:47.571Z,940.55
2018-06-28T09:17:47.569Z,940.50
2018-06-28T09:18:47.568Z,940.51
2018-06-28T09:19:47.568Z,940.51
2018-06-28T09:20:47.566Z,940.50
2018-06-28T09:21:47.565Z,940.48
2018-06-28T09:22:47.598Z,940.44
2018-06-28T09:23:47.564Z,940.47
2018-06-28T09:24:47.561Z,940.52
2018-06-28T09:25:47.565Z,940.50
2018-06-28T09:26:47.559Z,940.49
2018-06-28T09:27:47.559Z,940.50
2018-06-28T09:28:47.559Z,940.48
2018-06-28T09:29:47.557Z,940.45
2018-06-28T09:30:47.555Z,940.45
2018-06-28T09:31:47.996Z,940.44
2018-06-28T09:32:47.555Z,940.47
2018-06-28T09:33:47.555Z,940.48
2018-06-28T09:34:47.554Z,940.48
2018-06-28T09:35:47.568Z,940.46
2018-06-28T09:36:47.553Z,940.46
2018-06-28T09:37:47.552Z,940.42
2018-06-28T09:38:47.551Z,940.48
2018-06-28T09:39:47.551Z,940.44
2018-06-28T09:40:47.550Z,940.43
2018-06-28T09:41:47.549Z,940.40
2018-06-28T09:42:47.803Z,940.40
2018-06-28T09:43:47.548Z,940.38
2018-06-28T09:44:47.626Z,940.43
2018-06-28T09:45:47.548Z,940.36
2018-06-28T09:46:47.549Z,940.33
2018-06-28T09:47:47.598Z,940.32
2018-06-28T09:48:47.561Z,940.29
2018-06-28T09:49:47.543Z,940.34
2018-06-28T09:50:47.587Z,940.28
2018-06-28T09:51:47.828Z,940.30
2018-06-28T09:52:47.540Z,940.30
2018-06-28T09:53:47.540Z,940.27
2018-06-28T09:54:47.620Z,940.28
2018-06-28T09:55:47.539Z,940.27
2018-06-28T09:56:47.538Z,940.27
2018-06-28T09:57:47.538Z,940.30
2018-06-28T09:58:47.536Z,940.29
2018-06-28T09:59:47.535Z,940.30
2018-06-28T10:00:47.538Z,940.29
2018-06-28T10:01:47.533Z,940.31
2018-06-28T10:02:47.533Z,940.30
2018-06-28T10:03:47.594Z,940.30
2018-06-28T10:04:47.728Z,940.31
2018-06-28T10:05:47.532Z,940.32
2018-06-28T10:06:47.534Z,940.32
2018-06-28T10:07:47.530Z,940.30
2018-06-28T10:08:47.530Z,940.27
2018-06-28T10:09:47.528Z,940.28
2018-06-28T10:10:47.528Z,940.26
2018-06-28T10:11:47.550Z,940.26
2018-06-28T10:12:47.528Z,940.24
2018-06-28T10:13:47.526Z,940.24
2018-06-28T10:14:47.575Z,940.25
2018-06-28T10:15:47.529Z,940.26
2018-06-28T10:16:47.525Z,940.25
2018-06-28T10:17:47.525Z,940.22
2018-06-28T10:18:47.522Z,940.24
2018-06-28T10:19:47.523Z,940.21
2018-06-28T10:20:47.522Z,940.19
2018-06-28T10:21:47.526Z,940.19
2018-06-28T10:22:47.521Z,940.17
2018-06-28T10:23:47.520Z,940.17
2018-06-28T10:24:47.522Z,940.16
2018-06-28T10:25:47.520Z,940.16
2018-06-28T10:26:47.518Z,940.18
2018-06-28T10:27:47.518Z,940.15
2018-06-28T10:28:47.518Z,940.19
2018-06-28T10:29:47.553Z,940.17
2018-06-28T10:30:47.516Z,940.17
2018-06-28T10:31:47.514Z,940.14
2018-06-28T10:32:47.580Z,940.15
2018-06-28T10:33:47.514Z,940.16
2018-06-28T10:34:47.518Z,940.15
2018-06-28T10:35:47.513Z,940.14
2018-06-28T10:36:47.512Z,940.09
2018-06-28T10:37:47.511Z,940.06
2018-06-28T10:38:47.637Z,940.04
2018-06-28T10:39:47.512Z,940.01
2018-06-28T10:40:47.612Z,939.99
2018-06-28T10:41:47.510Z,939.94
2018-06-28T10:42:47.506Z,939.94
2018-06-28T10:43:47.506Z,939.95
2018-06-28T10:44:47.508Z,939.95
2018-06-28T10:45:47.507Z,939.96
2018-06-28T10:46:47.504Z,939.95
2018-06-28T10:47:47.693Z,939.93
2018-06-28T10:48:47.517Z,939.99
2018-06-28T10:49:47.544Z,939.98
2018-06-28T10:50:47.503Z,939.95
2018-06-28T10:51:47.504Z,939.92
2018-06-28T10:52:47.500Z,939.93
2018-06-28T10:53:47.502Z,939.93
2018-06-28T10:54:47.596Z,939.88
2018-06-28T10:55:47.504Z,939.85
2018-06-28T10:56:47.499Z,939.88
2018-06-28T10:57:47.499Z,939.86
2018-06-28T10:58:47.500Z,939.88
2018-06-28T10:59:47.502Z,939.86
2018-06-28T11:00:47.498Z,939.88
2018-06-28T11:01:47.504Z,939.91
2018-06-28T11:02:47.494Z,939.87
2018-06-28T11:03:47.494Z,939.86
2018-06-28T11:04:47.493Z,939.84
2018-06-28T11:05:47.494Z,939.83
2018-06-28T11:06:47.492Z,939.82
2018-06-28T11:07:47.492Z,939.83
2018-06-28T11:08:47.491Z,939.85
2018-06-28T11:09:47.492Z,939.86
2018-06-28T11:10:47.490Z,939.86
2018-06-28T11:11:47.490Z,939.85
2018-06-28T11:12:47.491Z,939.88
2018-06-28T11:13:47.488Z,939.91
2018-06-28T11:14:47.488Z,939.88
2018-06-28T11:15:47.521Z,939.88
2018-06-28T11:16:47.632Z,939.87
2018-06-28T11:17:47.486Z,939.83
2018-06-28T11:18:47.486Z,939.82
2018-06-28T11:19:47.487Z,939.77
2018-06-28T11:20:47.484Z,939.74
2018-06-28T11:21:47.483Z,939.77
2018-06-28T11:22:47.481Z,939.80
2018-06-28T11:23:47.480Z,939.80
2018-06-28T11:24:47.494Z,939.82
2018-06-28T11:25:47.759Z,939.84
2018-06-28T11:26:47.694Z,939.84
2018-06-28T11:27:47.698Z,939.78
2018-06-28T11:28:47.479Z,939.82
2018-06-28T11:29:47.477Z,939.82
2018-06-28T11:30:47.904Z,939.84
2018-06-28T11:31:47.692Z,939.83
2018-06-28T11:32:47.476Z,939.83
2018-06-28T11:33:47.476Z,939.81
2018-06-28T11:34:47.474Z,939.82
2018-06-28T11:35:47.475Z,939.84
2018-06-28T11:36:47.734Z,939.83
2018-06-28T11:37:47.747Z,939.80
2018-06-28T11:38:47.778Z,939.82
2018-06-28T11:39:47.473Z,939.79
2018-06-28T11:40:47.472Z,939.77
2018-06-28T11:41:47.499Z,939.78
2018-06-28T11:42:47.471Z,939.80
2018-06-28T11:43:47.829Z,939.78
2018-06-28T11:44:47.471Z,939.77
2018-06-28T11:45:47.472Z,939.77
2018-06-28T11:46:47.470Z,939.78
2018-06-28T11:47:47.469Z,939.78
2018-06-28T11:48:47.469Z,939.78
2018-06-28T11:49:47.468Z,939.79
2018-06-28T11:50:47.467Z,939.77
2018-06-28T11:51:47.468Z,939.79
2018-06-28T11:52:47.467Z,939.77
2018-06-28T11:53:47.467Z,939.73
2018-06-28T11:54:47.467Z,939.72
2018-06-28T11:55:47.538Z,939.71
2018-06-28T11:56:47.467Z,939.74
2018-06-28T11:57:47.466Z,939.73
2018-06-28T11:58:47.465Z,939.71
2018-06-28T11:59:47.466Z,939.71
2018-06-28T12:00:47.466Z,939.74
2018-06-28T12:01:47.465Z,939.75
2018-06-28T12:02:47.466Z,939.74
2018-06-28T12:03:47.673Z,939.73
2018-06-28T12:04:47.464Z,939.72
2018-06-28T12:05:47.466Z,939.73
2018-06-28T12:06:47.467Z,939.70
2018-06-28T12:07:47.464Z,939.70
2018-06-28T12:08:47.464Z,939.65
2018-06-28T12:09:47.464Z,939.62
2018-06-28T12:10:47.463Z,939.61
2018-06-28T12:11:47.468Z,939.56
2018-06-28T12:12:47.466Z,939.56
2018-06-28T12:13:47.464Z,939.55
2018-06-28T12:14:47.465Z,939.54
2018-06-28T12:15:47.463Z,939.51
2018-06-28T12:16:47.463Z,939.51
2018-06-28T12:17:47.464Z,939.51
2018-06-28T12:18:47.464Z,939.51
2018-06-28T12:19:47.463Z,939.46
2018-06-28T12:20:47.463Z,939.50
2018-06-28T12:21:47.463Z,939.50
2018-06-28T12:22:47.462Z,939.47
2018-06-28T12:23:47.464Z,939.49
2018-06-28T12:24:47.465Z,939.48
2018-06-28T12:25:47.471Z,939.43
2018-06-28T12:26:47.550Z,939.43
2018-06-28T12:27:47.542Z,939.43
2018-06-28T12:28:47.467Z,939.40